createdAt,value
2023-02-24T00:00:20.687Z,24.50
2023-02-24T00:02:37.010Z,24.13
2023-02-24T00:04:53.337Z,24.92
2023-02-24T00:07:09.714Z,23.77
2023-02-24T00:09:26.032Z,23.45
2023-02-24T00:11:42.340Z,24.20
2023-02-24T00:13:58.730Z,23.98
2023-02-24T00:16:15.189Z,24.55
2023-02-24T00:18:31.568Z,23.90
2023-02-24T00:20:48.114Z,23.60
2023-02-24T00:23:04.479Z,23.75
2023-02-24T00:25:20.719Z,23.77
2023-02-24T00:27:37.056Z,23.70
2023-02-24T00:29:53.368Z,23.65
2023-02-24T00:32:09.856Z,23.58
2023-02-24T00:34:26.430Z,25.08
2023-02-24T00:36:42.733Z,23.33
2023-02-24T00:39:00.051Z,24.27
2023-02-24T00:41:16.375Z,23.90
2023-02-24T00:43:32.677Z,23.92
2023-02-24T00:45:49.022Z,22.88
2023-02-24T00:48:05.268Z,22.60
2023-02-24T00:50:21.580Z,22.77
2023-02-24T00:52:37.818Z,22.35
2023-02-24T00:54:54.107Z,22.10
2023-02-24T00:57:10.403Z,22.38
2023-02-24T00:59:26.719Z,22.45
2023-02-24T01:01:43.130Z,21.88
2023-02-24T01:03:59.541Z,23.13
2023-02-24T01:06:15.844Z,22.25
2023-02-24T01:08:32.164Z,21.63
2023-02-24T01:10:48.440Z,21.65
2023-02-24T01:13:04.713Z,22.30
2023-02-24T01:15:21.013Z,21.17
2023-02-24T01:17:37.330Z,19.88
2023-02-24T01:19:53.657Z,20.15
2023-02-24T01:22:09.975Z,20.58
2023-02-24T01:24:26.244Z,20.58
2023-02-24T01:26:42.600Z,21.92
2023-02-24T01:28:58.886Z,21.38
2023-02-24T01:31:15.264Z,21.17
2023-02-24T01:33:31.578Z,21.25
2023-02-24T01:35:47.882Z,21.42
2023-02-24T01:38:04.155Z,22.92
2023-02-24T01:40:20.513Z,22.25
2023-02-24T01:42:36.885Z,20.73
2023-02-24T01:44:53.238Z,21.00
2023-02-24T01:47:09.542Z,20.48
2023-02-24T01:49:25.859Z,19.75
2023-02-24T01:51:42.164Z,22.30
2023-02-24T01:53:58.470Z,19.98
2023-02-24T01:56:14.763Z,21.67
2023-02-24T01:58:31.031Z,20.42
2023-02-24T02:00:47.344Z,20.48
2023-02-24T02:03:03.709Z,20.73
2023-02-24T02:05:20.001Z,20.40
2023-02-24T02:07:36.327Z,21.20
2023-02-24T02:09:52.584Z,21.45
2023-02-24T02:12:08.988Z,19.55
2023-02-24T02:14:25.302Z,20.65
2023-02-24T02:16:41.592Z,19.58
2023-02-24T02:18:57.916Z,21.02
2023-02-24T02:21:14.266Z,19.95
2023-02-24T02:23:30.605Z,19.83
2023-02-24T02:25:46.925Z,19.38
2023-02-24T02:28:03.374Z,19.52
2023-02-24T02:30:19.762Z,19.50
2023-02-24T02:32:36.284Z,19.20
2023-02-24T02:34:52.605Z,19.33
2023-02-24T02:37:08.888Z,18.75
2023-02-24T02:39:25.244Z,19.05
2023-02-24T02:41:41.574Z,18.70
2023-02-24T02:43:57.833Z,18.08
2023-02-24T02:46:14.151Z,18.65
2023-02-24T02:48:30.528Z,19.08
2023-02-24T02:50:46.820Z,18.52
2023-02-24T02:53:03.179Z,19.77
2023-02-24T02:55:19.474Z,17.83
2023-02-24T02:57:35.807Z,19.00
2023-02-24T02:59:52.081Z,18.42
2023-02-24T03:02:08.382Z,18.80
2023-02-24T03:04:24.710Z,19.80
2023-02-24T03:06:41.091Z,18.63
2023-02-24T03:08:57.384Z,19.45
2023-02-24T03:11:13.680Z,20.92
2023-02-24T03:13:29.993Z,20.50
2023-02-24T03:15:46.378Z,19.58
2023-02-24T03:18:02.733Z,20.20
2023-02-24T03:20:19.065Z,19.27
2023-02-24T03:22:35.508Z,21.15
2023-02-24T03:24:51.863Z,20.55
2023-02-24T03:27:08.178Z,20.08
2023-02-24T03:29:24.479Z,21.00
2023-02-24T03:31:40.891Z,19.05
2023-02-24T03:33:57.271Z,19.85
2023-02-24T03:36:13.581Z,20.58
2023-02-24T03:38:29.872Z,19.67
2023-02-24T03:40:46.180Z,19.95
2023-02-24T03:43:02.500Z,19.55
2023-02-24T03:45:18.774Z,19.42
2023-02-24T03:47:35.030Z,19.85
2023-02-24T03:49:51.346Z,18.67
2023-02-24T03:52:07.708Z,19.80
2023-02-24T03:54:24.011Z,19.10
2023-02-24T03:56:40.348Z,19.83
2023-02-24T03:58:59.694Z,18.80
2023-02-24T04:01:16.079Z,18.58
2023-02-24T04:03:32.406Z,18.50
2023-02-24T04:05:48.655Z,18.40
2023-02-24T04:08:04.981Z,17.85
2023-02-24T04:10:21.298Z,17.90
2023-02-24T04:12:37.622Z,17.63
2023-02-24T04:14:53.995Z,17.35
2023-02-24T04:17:10.269Z,19.13
2023-02-24T04:19:26.602Z,18.40
2023-02-24T04:21:42.899Z,19.20
2023-02-24T04:23:59.266Z,18.83
2023-02-24T04:26:15.500Z,18.63
2023-02-24T04:28:31.800Z,18.25
2023-02-24T04:30:48.215Z,18.42
2023-02-24T04:33:04.531Z,17.35
2023-02-24T04:35:20.795Z,18.25
2023-02-24T04:37:37.111Z,18.58
2023-02-24T04:39:53.439Z,17.88
2023-02-24T04:42:09.719Z,16.85
2023-02-24T04:44:26.002Z,17.98
2023-02-24T04:46:42.357Z,18.63
2023-02-24T04:48:58.692Z,18.25
2023-02-24T04:51:14.985Z,16.75
2023-02-24T04:53:31.288Z,17.88
2023-02-24T04:55:47.586Z,17.38
2023-02-24T04:58:03.972Z,17.55
2023-02-24T05:00:20.239Z,17.65
2023-02-24T05:02:36.517Z,17.25
2023-02-24T05:04:52.907Z,18.08
2023-02-24T05:07:09.258Z,17.13
2023-02-24T05:09:25.515Z,17.40
2023-02-24T05:11:41.869Z,17.80
2023-02-24T05:13:58.142Z,17.38
2023-02-24T05:16:14.470Z,17.50
2023-02-24T05:18:30.738Z,17.23
2023-02-24T05:20:46.999Z,16.55
2023-02-24T05:23:03.342Z,17.90
2023-02-24T05:25:19.635Z,18.02
2023-02-24T05:27:35.942Z,18.27
2023-02-24T05:29:53.824Z,18.00
2023-02-24T05:32:11.594Z,18.08
2023-02-24T05:34:27.898Z,17.30
2023-02-24T05:36:44.163Z,17.33
2023-02-24T05:39:00.505Z,17.52
2023-02-24T05:41:16.884Z,17.70
2023-02-24T05:43:33.174Z,17.10
2023-02-24T05:45:49.415Z,17.75
2023-02-24T05:48:05.689Z,18.77
2023-02-24T05:50:21.994Z,18.67
2023-02-24T05:52:38.273Z,17.77
2023-02-24T05:54:54.569Z,17.95
2023-02-24T05:57:10.903Z,17.60
2023-02-24T05:59:27.192Z,17.48
2023-02-24T06:01:43.507Z,19.35
2023-02-24T06:03:59.862Z,18.35
2023-02-24T06:06:16.187Z,16.60
2023-02-24T06:08:32.490Z,18.42
2023-02-24T06:10:48.750Z,17.45
2023-02-24T06:13:05.012Z,17.70
2023-02-24T06:15:21.316Z,17.52
2023-02-24T06:17:37.655Z,17.40
2023-02-24T06:19:53.922Z,18.40
2023-02-24T06:22:10.207Z,17.27
2023-02-24T06:24:26.594Z,18.00
2023-02-24T06:26:42.885Z,16.70
2023-02-24T06:28:59.151Z,17.42
2023-02-24T06:31:15.528Z,18.02
2023-02-24T06:33:31.803Z,18.50
2023-02-24T06:35:48.125Z,18.45
2023-02-24T06:38:04.384Z,23.55
2023-02-24T06:40:20.658Z,20.85
2023-02-24T06:42:36.898Z,19.70
2023-02-24T06:44:53.199Z,23.17
2023-02-24T06:47:09.488Z,20.45
2023-02-24T06:49:25.774Z,19.02
2023-02-24T06:51:42.061Z,18.05
2023-02-24T06:53:58.390Z,18.15
2023-02-24T06:56:14.704Z,18.08
2023-02-24T06:58:31.034Z,18.65
2023-02-24T07:00:47.374Z,19.90
2023-02-24T07:03:03.687Z,19.40
2023-02-24T07:05:19.973Z,19.02
2023-02-24T07:07:36.286Z,19.73
2023-02-24T07:09:52.612Z,18.80
2023-02-24T07:12:08.925Z,19.73
2023-02-24T07:14:25.210Z,18.52
2023-02-24T07:16:41.660Z,19.42
2023-02-24T07:18:58.018Z,17.38
2023-02-24T07:21:14.315Z,18.60
2023-02-24T07:23:30.625Z,19.40
2023-02-24T07:25:46.897Z,19.23
2023-02-24T07:28:03.178Z,20.23
2023-02-24T07:30:19.480Z,20.05
2023-02-24T07:32:35.821Z,20.35
2023-02-24T07:34:52.149Z,21.40
2023-02-24T07:37:08.658Z,19.80
2023-02-24T07:39:25.015Z,18.80
2023-02-24T07:41:41.304Z,21.00
2023-02-24T07:43:57.644Z,20.33
2023-02-24T07:46:13.933Z,21.25
2023-02-24T07:48:30.250Z,25.42
2023-02-24T07:50:46.497Z,22.10
2023-02-24T07:53:02.791Z,22.00
2023-02-24T07:55:19.042Z,21.67
2023-02-24T07:57:35.339Z,21.63
2023-02-24T07:59:51.816Z,20.33
2023-02-24T08:02:08.310Z,20.20
2023-02-24T08:04:24.612Z,20.13
2023-02-24T08:06:40.956Z,21.70
2023-02-24T08:08:57.196Z,21.73
2023-02-24T08:11:13.446Z,20.15
2023-02-24T08:13:29.701Z,21.25
2023-02-24T08:15:46.056Z,20.00
2023-02-24T08:18:02.391Z,21.25
2023-02-24T08:20:18.672Z,29.40
2023-02-24T08:22:34.960Z,23.00
2023-02-24T08:24:51.230Z,21.52
2023-02-24T08:27:07.512Z,21.13
2023-02-24T08:29:23.803Z,21.40
2023-02-24T08:31:40.210Z,19.70
2023-02-24T08:33:56.657Z,20.90
2023-02-24T08:36:12.957Z,20.35
2023-02-24T08:38:29.304Z,19.25
2023-02-24T08:40:45.582Z,20.20
2023-02-24T08:43:01.866Z,20.20
2023-02-24T08:45:18.151Z,21.23
2023-02-24T08:47:34.415Z,20.70
2023-02-24T08:49:50.702Z,21.08
2023-02-24T08:52:07.028Z,18.98
2023-02-24T08:54:23.304Z,20.50
2023-02-24T08:56:39.602Z,19.25
2023-02-24T08:58:55.913Z,20.73
2023-02-24T09:01:12.317Z,18.33
2023-02-24T09:03:28.654Z,19.52
2023-02-24T09:05:44.940Z,18.77
2023-02-24T09:08:01.164Z,18.20
2023-02-24T09:10:17.484Z,19.25
2023-02-24T09:12:33.794Z,17.48
2023-02-24T09:14:50.082Z,24.67
2023-02-24T09:17:06.859Z,21.63
2023-02-24T09:19:23.463Z,18.23
2023-02-24T09:21:39.828Z,18.20
2023-02-24T09:23:56.141Z,16.67
2023-02-24T09:26:12.440Z,16.92
2023-02-24T09:28:28.831Z,17.30
2023-02-24T09:30:45.319Z,16.33
2023-02-24T09:33:01.703Z,16.33
2023-02-24T09:35:18.054Z,16.63
2023-02-24T09:37:34.378Z,15.73
2023-02-24T09:39:50.652Z,16.48
2023-02-24T09:42:06.886Z,15.63
2023-02-24T09:44:23.178Z,16.60
2023-02-24T09:46:39.560Z,15.65
2023-02-24T09:48:55.875Z,15.55
2023-02-24T09:51:12.130Z,15.45
2023-02-24T09:53:28.398Z,15.55
2023-02-24T09:55:44.723Z,15.35
2023-02-24T09:58:00.970Z,14.95
2023-02-24T10:00:17.274Z,15.25
2023-02-24T10:02:33.614Z,14.50
2023-02-24T10:04:49.916Z,13.88
2023-02-24T10:07:06.199Z,13.38
2023-02-24T10:09:22.494Z,15.13
2023-02-24T10:11:38.752Z,15.82
2023-02-24T10:13:55.130Z,13.27
2023-02-24T10:16:11.471Z,13.32
2023-02-24T10:18:27.730Z,12.68
2023-02-24T10:20:44.159Z,12.63
2023-02-24T10:23:00.556Z,11.80
2023-02-24T10:25:21.078Z,12.35
2023-02-24T10:27:37.915Z,11.80
2023-02-24T10:29:54.242Z,12.30
2023-02-24T10:32:10.928Z,12.20
2023-02-24T10:34:27.397Z,11.82
2023-02-24T10:36:43.743Z,12.18
2023-02-24T10:39:00.019Z,12.63
2023-02-24T10:41:16.306Z,11.80
2023-02-24T10:43:32.650Z,10.70
2023-02-24T10:45:49.102Z,10.43
2023-02-24T10:48:05.390Z,10.70
2023-02-24T10:50:21.691Z,9.70
2023-02-24T10:52:37.975Z,12.73
2023-02-24T10:54:54.240Z,10.75
2023-02-24T10:57:10.486Z,10.75
2023-02-24T10:59:26.809Z,12.00
2023-02-24T11:01:43.179Z,9.38
2023-02-24T11:03:59.514Z,8.23
2023-02-24T11:06:15.810Z,9.20
2023-02-24T11:08:32.120Z,7.32
2023-02-24T11:10:48.399Z,7.63
2023-02-24T11:13:10.145Z,7.45
2023-02-24T11:15:26.804Z,7.28
2023-02-24T11:17:43.120Z,7.88
2023-02-24T11:19:59.396Z,7.68
2023-02-24T11:22:15.725Z,7.25
2023-02-24T11:24:32.055Z,7.30
2023-02-24T11:26:48.378Z,7.13
2023-02-24T11:29:04.663Z,7.13
2023-02-24T11:31:21.418Z,8.20
2023-02-24T11:33:38.031Z,10.13
2023-02-24T11:35:54.317Z,8.35
2023-02-24T11:38:10.617Z,9.48
2023-02-24T11:40:26.880Z,7.47
2023-02-24T11:42:43.146Z,7.03
2023-02-24T11:44:59.637Z,11.57
2023-02-24T11:47:15.920Z,14.23
2023-02-24T11:49:32.198Z,6.88
2023-02-24T11:51:48.465Z,6.60
2023-02-24T11:54:04.778Z,8.82
2023-02-24T11:56:21.581Z,7.38
2023-02-24T11:58:37.994Z,7.20
2023-02-24T12:00:54.350Z,6.65
2023-02-24T12:03:10.709Z,6.90
2023-02-24T12:05:27.111Z,6.82
2023-02-24T12:07:43.392Z,7.05
2023-02-24T12:10:14.067Z,7.10
2023-02-24T12:12:32.176Z,6.90
2023-02-24T12:14:48.437Z,6.90
2023-02-24T12:17:04.674Z,6.90
2023-02-24T12:19:21.123Z,7.53
2023-02-24T12:21:37.439Z,7.35
2023-02-24T12:23:53.726Z,7.80
2023-02-24T12:26:10.061Z,7.20
2023-02-24T12:28:26.374Z,7.82
2023-02-24T12:30:42.686Z,8.35
2023-02-24T12:32:59.064Z,8.63
2023-02-24T12:35:15.410Z,7.53
2023-02-24T12:37:31.808Z,8.13
2023-02-24T12:39:48.128Z,8.07
2023-02-24T12:42:04.420Z,8.85
2023-02-24T12:44:20.730Z,8.30
2023-02-24T12:46:37.012Z,9.15
2023-02-24T12:48:53.651Z,8.88
2023-02-24T12:51:09.903Z,10.35
2023-02-24T12:53:26.169Z,9.10
2023-02-24T12:55:42.442Z,9.27
2023-02-24T12:57:58.736Z,9.40
2023-02-24T13:00:15.031Z,8.82
2023-02-24T13:02:31.372Z,9.18
2023-02-24T13:04:47.723Z,8.10
2023-02-24T13:07:04.285Z,8.80
2023-02-24T13:09:20.620Z,8.10
2023-02-24T13:11:36.880Z,8.07
2023-02-24T13:13:53.155Z,7.90
2023-02-24T13:16:09.529Z,7.35
2023-02-24T13:18:25.838Z,8.05
2023-02-24T13:20:42.101Z,7.55
2023-02-24T13:22:58.363Z,7.38
2023-02-24T13:25:14.688Z,7.65
2023-02-24T13:27:30.967Z,7.72
2023-02-24T13:29:47.274Z,7.47
2023-02-24T13:32:03.668Z,7.00
2023-02-24T13:34:20.028Z,8.95
2023-02-24T13:36:36.254Z,9.10
2023-02-24T13:38:52.520Z,7.15
2023-02-24T13:41:08.770Z,13.65
2023-02-24T13:43:25.075Z,8.27
2023-02-24T13:45:41.372Z,7.75
2023-02-24T13:48:00.695Z,6.80
2023-02-24T13:50:17.998Z,7.60
2023-02-24T13:52:34.298Z,7.50
2023-02-24T13:54:50.583Z,7.32
2023-02-24T13:57:06.853Z,6.60
2023-02-24T13:59:23.110Z,6.97
2023-02-24T14:01:39.475Z,6.70
2023-02-24T14:03:55.981Z,5.97
2023-02-24T14:06:12.237Z,5.97
2023-02-24T14:08:28.578Z,6.47
2023-02-24T14:10:44.921Z,19.20
2023-02-24T14:13:01.192Z,7.82
2023-02-24T14:15:17.478Z,7.50
2023-02-24T14:17:33.778Z,7.18
2023-02-24T14:19:50.096Z,6.78
2023-02-24T14:22:06.361Z,6.75
2023-02-24T14:24:22.753Z,6.28
2023-02-24T14:26:39.082Z,5.97
2023-02-24T14:28:55.374Z,5.60
2023-02-24T14:31:11.774Z,5.25
2023-02-24T14:33:28.132Z,5.50
2023-02-24T14:35:44.401Z,5.45
2023-02-24T14:38:02.262Z,5.28
2023-02-24T14:40:18.752Z,5.13
2023-02-24T14:42:35.058Z,5.00
2023-02-24T14:44:51.323Z,5.45
2023-02-24T14:47:07.610Z,4.65
2023-02-24T14:49:23.911Z,5.22
2023-02-24T14:51:40.198Z,5.20
2023-02-24T14:53:56.474Z,5.03
2023-02-24T14:56:12.843Z,4.38
2023-02-24T14:58:29.308Z,4.40
2023-02-24T15:00:45.600Z,4.43
2023-02-24T15:03:01.939Z,4.40
2023-02-24T15:05:18.275Z,4.43
2023-02-24T15:07:34.540Z,4.50
2023-02-24T15:09:50.826Z,4.15
2023-02-24T15:12:07.085Z,4.57
2023-02-24T15:14:23.372Z,4.40
2023-02-24T15:16:39.670Z,4.05
2023-02-24T15:18:55.936Z,4.20
2023-02-24T15:21:12.395Z,4.22
2023-02-24T15:23:31.420Z,4.32
2023-02-24T15:25:47.661Z,4.70
2023-02-24T15:28:03.970Z,4.40
2023-02-24T15:30:20.209Z,4.03
2023-02-24T15:32:36.703Z,4.45
2023-02-24T15:34:53.026Z,4.45
2023-02-24T15:37:10.085Z,4.28
2023-02-24T15:39:26.374Z,3.88
2023-02-24T15:41:42.692Z,3.80
2023-02-24T15:43:59.003Z,4.00
2023-02-24T15:46:15.278Z,3.75
2023-02-24T15:48:31.556Z,3.80
2023-02-24T15:50:47.884Z,3.80
2023-02-24T15:53:04.201Z,3.97
2023-02-24T15:55:20.497Z,3.85
2023-02-24T15:57:36.778Z,3.42
2023-02-24T15:59:53.088Z,3.97
2023-02-24T16:02:09.348Z,4.00
2023-02-24T16:04:25.632Z,3.40
2023-02-24T16:06:41.894Z,3.85
2023-02-24T16:08:58.196Z,4.03
2023-02-24T16:11:14.493Z,3.83
2023-02-24T16:13:30.755Z,5.22
2023-02-24T16:15:47.031Z,4.45
2023-02-24T16:18:03.337Z,6.00
2023-02-24T16:20:19.677Z,7.57
2023-02-24T16:22:35.985Z,16.65
2023-02-24T16:24:52.261Z,31.92
2023-02-24T16:27:08.561Z,20.83
2023-02-24T16:29:24.830Z,37.47
2023-02-24T16:31:41.436Z,8.85
2023-02-24T16:33:57.972Z,5.25
2023-02-24T16:36:14.398Z,3.42
2023-02-24T16:38:30.603Z,4.05
2023-02-24T16:40:46.857Z,3.90
2023-02-24T16:43:03.133Z,4.28
2023-02-24T16:45:19.451Z,3.35
2023-02-24T16:47:35.713Z,3.22
2023-02-24T16:49:52.022Z,3.17
2023-02-24T16:52:08.333Z,3.05
2023-02-24T16:54:24.636Z,3.00
2023-02-24T16:56:41.105Z,4.40
2023-02-24T16:58:57.410Z,3.35
2023-02-24T17:01:13.710Z,3.30
2023-02-24T17:03:30.041Z,3.70
2023-02-24T17:05:46.345Z,3.75
2023-02-24T17:08:02.589Z,2.88
2023-02-24T17:10:18.894Z,2.70
2023-02-24T17:12:35.200Z,3.08
2023-02-24T17:14:51.468Z,3.03
2023-02-24T17:17:07.761Z,2.80
2023-02-24T17:19:24.074Z,2.85
2023-02-24T17:21:40.436Z,3.10
2023-02-24T17:23:56.760Z,3.30
2023-02-24T17:26:13.074Z,3.58
2023-02-24T17:28:29.382Z,3.33
2023-02-24T17:30:45.755Z,3.28
2023-02-24T17:33:02.138Z,3.00
2023-02-24T17:35:18.442Z,3.10
2023-02-24T17:37:34.722Z,3.75
2023-02-24T17:39:51.138Z,3.40
2023-02-24T17:42:07.748Z,4.10
2023-02-24T17:44:24.076Z,7.55
2023-02-24T17:46:40.488Z,4.95
2023-02-24T17:48:56.842Z,6.68
2023-02-24T17:51:13.139Z,25.95
2023-02-24T17:53:29.437Z,9.45
2023-02-24T17:56:01.579Z,7.32
2023-02-24T17:58:18.800Z,4.00
2023-02-24T18:00:35.101Z,6.57
2023-02-24T18:02:51.495Z,6.53
2023-02-24T18:05:07.854Z,4.32
2023-02-24T18:07:24.203Z,3.90
2023-02-24T18:09:40.681Z,6.72
2023-02-24T18:11:56.986Z,7.70
2023-02-24T18:14:13.318Z,5.88
2023-02-24T18:16:30.569Z,5.65
2023-02-24T18:18:47.020Z,4.70
2023-02-24T18:21:03.400Z,4.65
2023-02-24T18:23:19.753Z,4.47
2023-02-24T18:25:36.096Z,4.53
2023-02-24T18:27:52.434Z,4.50
2023-02-24T18:30:08.895Z,4.28
2023-02-24T18:32:25.324Z,4.03
2023-02-24T18:34:41.805Z,4.45
2023-02-24T18:36:58.097Z,4.22
2023-02-24T18:39:14.383Z,3.75
2023-02-24T18:41:30.679Z,3.90
2023-02-24T18:43:47.113Z,4.40
2023-02-24T18:46:03.488Z,6.78
2023-02-24T18:48:19.788Z,4.47
2023-02-24T18:50:36.097Z,6.97
2023-02-24T18:52:52.433Z,5.05
2023-02-24T18:55:08.726Z,5.70
2023-02-24T18:57:24.999Z,4.82
2023-02-24T18:59:41.289Z,4.70
2023-02-24T19:01:57.672Z,4.80
2023-02-24T19:04:13.965Z,6.20
2023-02-24T19:06:30.294Z,6.10
2023-02-24T19:08:46.595Z,5.53
2023-02-24T19:11:02.900Z,4.75
2023-02-24T19:13:19.194Z,5.28
2023-02-24T19:15:35.485Z,6.43
2023-02-24T19:17:51.811Z,6.00
2023-02-24T19:20:08.136Z,5.90
2023-02-24T19:22:24.443Z,6.00
2023-02-24T19:24:40.734Z,7.13
2023-02-24T19:26:57.013Z,7.63
2023-02-24T19:29:13.344Z,6.80
2023-02-24T19:31:29.750Z,11.98
2023-02-24T19:33:46.134Z,13.38
2023-02-24T19:36:02.538Z,7.97
2023-02-24T19:38:18.880Z,11.75
2023-02-24T19:40:35.141Z,14.13
2023-02-24T19:42:51.408Z,13.55
2023-02-24T19:45:07.745Z,11.10
2023-02-24T19:47:24.282Z,7.85
2023-02-24T19:49:40.603Z,7.88
2023-02-24T19:51:56.895Z,6.53
2023-02-24T19:54:13.178Z,6.45
2023-02-24T19:56:29.762Z,8.13
2023-02-24T19:58:46.300Z,8.02
2023-02-24T20:01:02.682Z,8.68
2023-02-24T20:03:19.058Z,8.20
2023-02-24T20:05:35.394Z,7.93
2023-02-24T20:07:51.688Z,8.63
2023-02-24T20:10:07.949Z,8.32
2023-02-24T20:12:24.305Z,9.82
2023-02-24T20:14:40.639Z,8.55
2023-02-24T20:16:56.972Z,8.52
2023-02-24T20:19:13.266Z,7.75
2023-02-24T20:21:29.535Z,7.63
2023-02-24T20:23:45.864Z,7.82
2023-02-24T20:26:02.239Z,7.20
2023-02-24T20:28:18.537Z,7.40
2023-02-24T20:30:34.829Z,8.00
2023-02-24T20:32:51.171Z,8.57
2023-02-24T20:35:07.515Z,8.05
2023-02-24T20:37:23.902Z,7.90
2023-02-24T20:39:40.213Z,8.07
2023-02-24T20:41:56.549Z,7.35
2023-02-24T20:44:12.837Z,7.50
2023-02-24T20:46:29.324Z,8.18
2023-02-24T20:48:45.715Z,8.13
2023-02-24T20:51:02.090Z,7.45
2023-02-24T20:53:18.354Z,8.48
2023-02-24T20:55:34.654Z,8.73
2023-02-24T20:57:50.919Z,8.35
2023-02-24T21:00:07.241Z,7.72
2023-02-24T21:02:23.503Z,7.82
2023-02-24T21:04:39.833Z,8.85
2023-02-24T21:06:56.141Z,7.60
2023-02-24T21:09:12.451Z,8.07
2023-02-24T21:11:28.716Z,7.32
2023-02-24T21:13:45.007Z,7.90
2023-02-24T21:16:01.323Z,7.78
2023-02-24T21:18:17.653Z,7.55
2023-02-24T21:20:33.972Z,7.68
2023-02-24T21:22:50.249Z,7.32
2023-02-24T21:25:06.709Z,7.85
2023-02-24T21:27:23.070Z,7.25
2023-02-24T21:29:39.314Z,7.45
2023-02-24T21:31:55.704Z,7.38
2023-02-24T21:34:12.040Z,7.05
2023-02-24T21:36:28.389Z,7.05
2023-02-24T21:38:44.710Z,7.55
2023-02-24T21:41:01.020Z,7.00
2023-02-24T21:43:17.320Z,7.40
2023-02-24T21:45:33.624Z,6.93
2023-02-24T21:47:49.978Z,6.93
2023-02-24T21:50:06.306Z,6.93
2023-02-24T21:52:22.680Z,7.30
2023-02-24T21:54:39.042Z,6.93
2023-02-24T21:56:55.345Z,7.63
2023-02-24T21:59:11.798Z,6.97
2023-02-24T22:01:28.171Z,6.85
2023-02-24T22:03:44.531Z,7.15
2023-02-24T22:06:00.815Z,7.07
2023-02-24T22:08:17.158Z,7.20
2023-02-24T22:10:33.472Z,7.20
2023-02-24T22:12:49.857Z,6.97
2023-02-24T22:15:06.506Z,6.60
2023-02-24T22:17:24.338Z,7.50
2023-02-24T22:19:40.634Z,8.45
2023-02-24T22:21:56.950Z,7.70
2023-02-24T22:24:13.268Z,7.10
2023-02-24T22:26:29.586Z,6.85
2023-02-24T22:28:45.907Z,6.68
2023-02-24T22:31:02.332Z,6.22
2023-02-24T22:33:18.719Z,6.18
2023-02-24T22:35:35.026Z,6.40
2023-02-24T22:37:51.353Z,5.72
2023-02-24T22:40:07.899Z,5.57
2023-02-24T22:42:24.167Z,6.20
2023-02-24T22:44:40.634Z,6.10
2023-02-24T22:46:56.953Z,5.90
2023-02-24T22:49:13.360Z,5.97
2023-02-24T22:51:29.718Z,5.82
2023-02-24T22:53:46.066Z,5.60
2023-02-24T22:56:04.807Z,5.40
2023-02-24T22:58:21.191Z,5.25
2023-02-24T23:00:37.614Z,5.32
2023-02-24T23:02:54.093Z,4.93
2023-02-24T23:05:10.388Z,4.85
2023-02-24T23:07:26.733Z,4.70
2023-02-24T23:09:43.036Z,4.95
2023-02-24T23:11:59.307Z,5.05
2023-02-24T23:14:15.760Z,5.30
2023-02-24T23:16:32.149Z,4.60
2023-02-24T23:18:48.508Z,4.10
2023-02-24T23:21:04.874Z,3.90
2023-02-24T23:23:21.194Z,3.88
2023-02-24T23:25:37.507Z,3.63
2023-02-24T23:27:53.910Z,3.90
2023-02-24T23:30:10.307Z,3.45
2023-02-24T23:32:26.789Z,3.58
2023-02-24T23:34:43.294Z,3.35
2023-02-24T23:36:59.643Z,3.08
2023-02-24T23:39:15.939Z,3.88
2023-02-24T23:41:34.296Z,4.30
2023-02-24T23:43:50.628Z,2.95
2023-02-24T23:46:06.904Z,3.08
2023-02-24T23:48:23.208Z,2.95
2023-02-24T23:50:39.524Z,2.95
2023-02-24T23:52:55.854Z,2.55
2023-02-24T23:55:12.146Z,2.83
2023-02-24T23:57:28.532Z,2.55
2023-02-24T23:59:44.845Z,2.70
